sensor_id;sensor_type;location;lat;lon;timestamp;P1;durP1;ratioP1;P2;durP2;ratioP2
30303;SDS011;17112;48.636;10.152;2023-11-21T00:02:21;7.05;;;2.78;;
30303;SDS011;17112;48.636;10.152;2023-11-21T00:04:47;10.18;;;2.80;;
30303;SDS011;17112;48.636;10.152;2023-11-21T00:07:13;6.90;;;2.67;;
30303;SDS011;17112;48.636;10.152;2023-11-21T00:09:39;7.53;;;2.53;;
30303;SDS011;17112;48.636;10.152;2023-11-21T00:12:06;9.25;;;2.88;;
30303;SDS011;17112;48.636;10.152;2023-11-21T00:14:35;10.63;;;2.67;;
30303;SDS011;17112;48.636;10.152;2023-11-21T00:17:02;11.27;;;3.00;;
30303;SDS011;17112;48.636;10.152;2023-11-21T00:19:28;10.60;;;2.85;;
30303;SDS011;17112;48.636;10.152;2023-11-21T00:21:53;11.23;;;3.05;;
30303;SDS011;17112;48.636;10.152;2023-11-21T00:24:19;8.77;;;3.30;;
30303;SDS011;17112;48.636;10.152;2023-11-21T00:26:44;12.45;;;3.08;;
30303;SDS011;17112;48.636;10.152;2023-11-21T00:29:11;7.70;;;2.90;;
30303;SDS011;17112;48.636;10.152;2023-11-21T00:31:36;16.45;;;3.30;;
30303;SDS011;17112;48.636;10.152;2023-11-21T00:34:03;9.05;;;2.85;;
30303;SDS011;17112;48.636;10.152;2023-11-21T00:36:30;11.80;;;2.83;;
30303;SDS011;17112;48.636;10.152;2023-11-21T00:38:59;7.10;;;2.50;;
30303;SDS011;17112;48.636;10.152;2023-11-21T00:41:25;8.45;;;2.80;;
30303;SDS011;17112;48.636;10.152;2023-11-21T00:43:54;12.82;;;2.90;;
30303;SDS011;17112;48.636;10.152;2023-11-21T00:46:20;7.55;;;2.58;;
30303;SDS011;17112;48.636;10.152;2023-11-21T00:48:46;10.70;;;2.97;;
30303;SDS011;17112;48.636;10.152;2023-11-21T00:51:11;9.05;;;2.67;;
30303;SDS011;17112;48.636;10.152;2023-11-21T00:53:37;8.57;;;3.00;;
30303;SDS011;17112;48.636;10.152;2023-11-21T00:56:03;4.60;;;2.55;;
30303;SDS011;17112;48.636;10.152;2023-11-21T00:58:29;10.13;;;3.08;;
30303;SDS011;17112;48.636;10.152;2023-11-21T01:00:55;10.18;;;3.17;;
30303;SDS011;17112;48.636;10.152;2023-11-21T01:03:21;10.95;;;3.10;;
30303;SDS011;17112;48.636;10.152;2023-11-21T01:05:46;8.80;;;2.85;;
30303;SDS011;17112;48.636;10.152;2023-11-21T01:08:14;9.93;;;2.60;;
30303;SDS011;17112;48.636;10.152;2023-11-21T01:10:40;8.73;;;2.60;;
30303;SDS011;17112;48.636;10.152;2023-11-21T01:13:06;11.27;;;2.83;;
30303;SDS011;17112;48.636;10.152;2023-11-21T01:15:32;9.23;;;2.95;;
30303;SDS011;17112;48.636;10.152;2023-11-21T01:18:00;6.75;;;2.88;;
30303;SDS011;17112;48.636;10.152;2023-11-21T01:20:26;7.60;;;2.60;;
30303;SDS011;17112;48.636;10.152;2023-11-21T01:22:52;6.60;;;3.00;;
30303;SDS011;17112;48.636;10.152;2023-11-21T01:25:19;4.25;;;2.45;;
30303;SDS011;17112;48.636;10.152;2023-11-21T01:27:46;7.68;;;2.47;;
30303;SDS011;17112;48.636;10.152;2023-11-21T01:30:12;9.13;;;2.35;;
30303;SDS011;17112;48.636;10.152;2023-11-21T01:32:38;6.70;;;2.42;;
30303;SDS011;17112;48.636;10.152;2023-11-21T01:35:04;8.65;;;2.75;;
30303;SDS011;17112;48.636;10.152;2023-11-21T01:37:31;9.57;;;2.80;;
30303;SDS011;17112;48.636;10.152;2023-11-21T01:39:58;11.32;;;2.63;;
30303;SDS011;17112;48.636;10.152;2023-11-21T01:42:24;7.00;;;2.63;;
30303;SDS011;17112;48.636;10.152;2023-11-21T01:44:49;6.30;;;2.80;;
30303;SDS011;17112;48.636;10.152;2023-11-21T01:47:15;13.90;;;3.08;;
30303;SDS011;17112;48.636;10.152;2023-11-21T01:49:45;6.45;;;2.63;;
30303;SDS011;17112;48.636;10.152;2023-11-21T01:52:11;9.38;;;2.28;;
30303;SDS011;17112;48.636;10.152;2023-11-21T01:54:38;4.93;;;2.53;;
30303;SDS011;17112;48.636;10.152;2023-11-21T01:57:04;7.90;;;2.30;;
30303;SDS011;17112;48.636;10.152;2023-11-21T01:59:37;9.70;;;2.50;;
30303;SDS011;17112;48.636;10.152;2023-11-21T02:02:07;8.70;;;2.35;;
30303;SDS011;17112;48.636;10.152;2023-11-21T02:04:33;9.98;;;2.40;;
30303;SDS011;17112;48.636;10.152;2023-11-21T02:06:59;6.35;;;2.58;;
30303;SDS011;17112;48.636;10.152;2023-11-21T02:09:26;8.68;;;2.33;;
30303;SDS011;17112;48.636;10.152;2023-11-21T02:11:53;8.18;;;2.58;;
30303;SDS011;17112;48.636;10.152;2023-11-21T02:14:23;10.55;;;2.15;;
30303;SDS011;17112;48.636;10.152;2023-11-21T02:16:51;4.88;;;2.10;;
30303;SDS011;17112;48.636;10.152;2023-11-21T02:19:18;11.25;;;2.35;;
30303;SDS011;17112;48.636;10.152;2023-11-21T02:21:47;6.13;;;2.40;;
30303;SDS011;17112;48.636;10.152;2023-11-21T02:24:17;7.38;;;2.25;;
30303;SDS011;17112;48.636;10.152;2023-11-21T02:26:47;7.15;;;2.42;;
30303;SDS011;17112;48.636;10.152;2023-11-21T02:29:16;7.07;;;2.42;;
30303;SDS011;17112;48.636;10.152;2023-11-21T02:31:43;6.68;;;2.42;;
30303;SDS011;17112;48.636;10.152;2023-11-21T02:34:15;8.52;;;2.13;;
30303;SDS011;17112;48.636;10.152;2023-11-21T02:36:45;7.60;;;2.53;;
30303;SDS011;17112;48.636;10.152;2023-11-21T02:39:11;7.43;;;2.20;;
30303;SDS011;17112;48.636;10.152;2023-11-21T02:41:37;6.72;;;2.10;;
30303;SDS011;17112;48.636;10.152;2023-11-21T02:44:04;5.60;;;2.33;;
30303;SDS011;17112;48.636;10.152;2023-11-21T02:46:33;7.70;;;2.45;;
30303;SDS011;17112;48.636;10.152;2023-11-21T02:49:08;8.35;;;2.75;;
30303;SDS011;17112;48.636;10.152;2023-11-21T02:51:35;7.00;;;2.40;;
30303;SDS011;17112;48.636;10.152;2023-11-21T02:54:03;5.30;;;2.10;;
30303;SDS011;17112;48.636;10.152;2023-11-21T02:56:31;16.48;;;2.80;;
30303;SDS011;17112;48.636;10.152;2023-11-21T02:58:58;7.68;;;2.20;;
30303;SDS011;17112;48.636;10.152;2023-11-21T03:01:25;6.88;;;1.88;;
30303;SDS011;17112;48.636;10.152;2023-11-21T03:03:51;10.32;;;2.15;;
30303;SDS011;17112;48.636;10.152;2023-11-21T03:06:17;7.55;;;2.40;;
30303;SDS011;17112;48.636;10.152;2023-11-21T03:08:43;9.27;;;3.25;;
30303;SDS011;17112;48.636;10.152;2023-11-21T03:11:09;6.38;;;2.38;;
30303;SDS011;17112;48.636;10.152;2023-11-21T03:13:35;4.47;;;2.00;;
30303;SDS011;17112;48.636;10.152;2023-11-21T03:16:00;5.68;;;2.00;;
30303;SDS011;17112;48.636;10.152;2023-11-21T03:18:26;8.68;;;2.30;;
30303;SDS011;17112;48.636;10.152;2023-11-21T03:20:54;14.13;;;2.30;;
30303;SDS011;17112;48.636;10.152;2023-11-21T03:23:20;4.35;;;1.75;;
30303;SDS011;17112;48.636;10.152;2023-11-21T03:25:45;5.75;;;1.80;;
30303;SDS011;17112;48.636;10.152;2023-11-21T03:28:11;4.88;;;1.90;;
30303;SDS011;17112;48.636;10.152;2023-11-21T03:30:37;6.25;;;1.83;;
30303;SDS011;17112;48.636;10.152;2023-11-21T03:33:02;5.13;;;1.83;;
30303;SDS011;17112;48.636;10.152;2023-11-21T03:35:28;5.55;;;2.10;;
30303;SDS011;17112;48.636;10.152;2023-11-21T03:37:54;7.15;;;2.30;;
30303;SDS011;17112;48.636;10.152;2023-11-21T03:40:19;4.78;;;2.13;;
30303;SDS011;17112;48.636;10.152;2023-11-21T03:42:48;7.60;;;2.20;;
30303;SDS011;17112;48.636;10.152;2023-11-21T03:45:14;7.00;;;2.17;;
30303;SDS011;17112;48.636;10.152;2023-11-21T03:47:41;4.97;;;2.10;;
30303;SDS011;17112;48.636;10.152;2023-11-21T03:50:07;5.25;;;2.08;;
30303;SDS011;17112;48.636;10.152;2023-11-21T03:52:34;6.03;;;2.38;;
30303;SDS011;17112;48.636;10.152;2023-11-21T03:55:00;5.18;;;2.22;;
30303;SDS011;17112;48.636;10.152;2023-11-21T03:57:26;5.13;;;1.98;;
30303;SDS011;17112;48.636;10.152;2023-11-21T03:59:52;6.80;;;2.22;;
30303;SDS011;17112;48.636;10.152;2023-11-21T04:02:18;7.00;;;2.25;;
30303;SDS011;17112;48.636;10.152;2023-11-21T04:04:44;4.22;;;1.95;;
30303;SDS011;17112;48.636;10.152;2023-11-21T04:07:10;6.63;;;2.60;;
30303;SDS011;17112;48.636;10.152;2023-11-21T04:09:36;11.35;;;2.65;;
30303;SDS011;17112;48.636;10.152;2023-11-21T04:12:02;7.03;;;2.67;;
30303;SDS011;17112;48.636;10.152;2023-11-21T04:14:27;10.65;;;2.58;;
30303;SDS011;17112;48.636;10.152;2023-11-21T04:16:53;5.38;;;2.42;;
30303;SDS011;17112;48.636;10.152;2023-11-21T04:19:19;7.90;;;2.35;;
30303;SDS011;17112;48.636;10.152;2023-11-21T04:21:45;9.90;;;2.47;;
30303;SDS011;17112;48.636;10.152;2023-11-21T04:24:11;11.23;;;2.92;;
30303;SDS011;17112;48.636;10.152;2023-11-21T04:26:37;8.43;;;2.70;;
30303;SDS011;17112;48.636;10.152;2023-11-21T04:29:03;5.80;;;2.80;;
30303;SDS011;17112;48.636;10.152;2023-11-21T04:31:29;6.68;;;2.65;;
30303;SDS011;17112;48.636;10.152;2023-11-21T04:33:57;10.05;;;2.70;;
30303;SDS011;17112;48.636;10.152;2023-11-21T04:36:22;9.82;;;2.72;;
30303;SDS011;17112;48.636;10.152;2023-11-21T04:38:48;10.77;;;2.53;;
30303;SDS011;17112;48.636;10.152;2023-11-21T04:41:14;5.82;;;2.10;;
30303;SDS011;17112;48.636;10.152;2023-11-21T04:43:39;7.80;;;3.10;;
30303;SDS011;17112;48.636;10.152;2023-11-21T04:46:05;12.27;;;3.20;;
30303;SDS011;17112;48.636;10.152;2023-11-21T04:48:32;8.00;;;2.97;;
30303;SDS011;17112;48.636;10.152;2023-11-21T04:50:58;6.43;;;3.08;;
30303;SDS011;17112;48.636;10.152;2023-11-21T04:53:23;6.70;;;3.60;;
30303;SDS011;17112;48.636;10.152;2023-11-21T04:55:49;5.18;;;2.78;;
30303;SDS011;17112;48.636;10.152;2023-11-21T04:58:15;7.65;;;4.00;;
30303;SDS011;17112;48.636;10.152;2023-11-21T05:00:40;12.00;;;4.43;;
30303;SDS011;17112;48.636;10.152;2023-11-21T05:03:06;9.07;;;4.40;;
30303;SDS011;17112;48.636;10.152;2023-11-21T05:05:32;9.80;;;4.20;;
30303;SDS011;17112;48.636;10.152;2023-11-21T05:08:01;7.57;;;4.30;;
30303;SDS011;17112;48.636;10.152;2023-11-21T05:10:28;12.15;;;4.10;;
30303;SDS011;17112;48.636;10.152;2023-11-21T05:12:54;8.95;;;3.33;;
30303;SDS011;17112;48.636;10.152;2023-11-21T05:15:20;6.60;;;3.20;;
30303;SDS011;17112;48.636;10.152;2023-11-21T05:17:46;7.45;;;3.65;;
30303;SDS011;17112;48.636;10.152;2023-11-21T05:20:15;7.22;;;3.15;;
30303;SDS011;17112;48.636;10.152;2023-11-21T05:22:48;3.53;;;2.40;;
30303;SDS011;17112;48.636;10.152;2023-11-21T05:25:14;7.90;;;2.75;;
30303;SDS011;17112;48.636;10.152;2023-11-21T05:27:43;9.15;;;3.30;;
30303;SDS011;17112;48.636;10.152;2023-11-21T05:30:09;3.45;;;2.13;;
30303;SDS011;17112;48.636;10.152;2023-11-21T05:32:37;7.65;;;2.60;;
30303;SDS011;17112;48.636;10.152;2023-11-21T05:35:03;6.43;;;2.47;;
30303;SDS011;17112;48.636;10.152;2023-11-21T05:37:34;8.30;;;2.40;;
30303;SDS011;17112;48.636;10.152;2023-11-21T05:40:00;6.05;;;2.70;;
30303;SDS011;17112;48.636;10.152;2023-11-21T05:42:30;11.00;;;2.75;;
30303;SDS011;17112;48.636;10.152;2023-11-21T05:44:59;6.25;;;2.38;;
30303;SDS011;17112;48.636;10.152;2023-11-21T05:47:35;5.75;;;2.42;;
30303;SDS011;17112;48.636;10.152;2023-11-21T05:50:02;8.18;;;2.45;;
30303;SDS011;17112;48.636;10.152;2023-11-21T05:52:28;8.55;;;2.30;;
30303;SDS011;17112;48.636;10.152;2023-11-21T05:54:54;6.63;;;1.98;;
30303;SDS011;17112;48.636;10.152;2023-11-21T05:57:19;5.47;;;2.05;;
30303;SDS011;17112;48.636;10.152;2023-11-21T05:59:45;5.40;;;2.00;;
30303;SDS011;17112;48.636;10.152;2023-11-21T06:02:11;7.22;;;1.70;;
30303;SDS011;17112;48.636;10.152;2023-11-21T06:04:36;5.30;;;1.75;;
30303;SDS011;17112;48.636;10.152;2023-11-21T06:07:02;4.90;;;2.00;;
30303;SDS011;17112;48.636;10.152;2023-11-21T06:09:28;6.70;;;2.70;;
30303;SDS011;17112;48.636;10.152;2023-11-21T06:11:53;6.03;;;2.22;;
30303;SDS011;17112;48.636;10.152;2023-11-21T06:14:19;4.28;;;2.17;;
30303;SDS011;17112;48.636;10.152;2023-11-21T06:16:46;6.28;;;2.30;;
30303;SDS011;17112;48.636;10.152;2023-11-21T06:19:12;6.00;;;2.15;;
30303;SDS011;17112;48.636;10.152;2023-11-21T06:21:38;7.18;;;2.50;;
30303;SDS011;17112;48.636;10.152;2023-11-21T06:24:04;4.97;;;3.00;;
30303;SDS011;17112;48.636;10.152;2023-11-21T06:26:29;5.57;;;3.50;;
30303;SDS011;17112;48.636;10.152;2023-11-21T06:28:56;10.07;;;4.25;;
30303;SDS011;17112;48.636;10.152;2023-11-21T06:31:22;12.82;;;4.40;;
30303;SDS011;17112;48.636;10.152;2023-11-21T06:33:48;6.60;;;3.67;;
30303;SDS011;17112;48.636;10.152;2023-11-21T06:36:14;5.47;;;3.10;;
30303;SDS011;17112;48.636;10.152;2023-11-21T06:38:41;4.18;;;2.60;;
30303;SDS011;17112;48.636;10.152;2023-11-21T06:41:07;4.25;;;2.53;;
30303;SDS011;17112;48.636;10.152;2023-11-21T06:43:33;4.22;;;2.20;;
30303;SDS011;17112;48.636;10.152;2023-11-21T06:45:59;4.50;;;2.05;;
30303;SDS011;17112;48.636;10.152;2023-11-21T06:48:25;4.07;;;2.13;;
30303;SDS011;17112;48.636;10.152;2023-11-21T06:50:50;6.13;;;1.95;;
30303;SDS011;17112;48.636;10.152;2023-11-21T06:53:17;3.58;;;1.75;;
30303;SDS011;17112;48.636;10.152;2023-11-21T06:55:43;7.20;;;2.33;;
30303;SDS011;17112;48.636;10.152;2023-11-21T06:58:08;4.72;;;1.48;;
30303;SDS011;17112;48.636;10.152;2023-11-21T07:00:34;5.30;;;1.70;;
30303;SDS011;17112;48.636;10.152;2023-11-21T07:02:59;5.88;;;1.75;;
30303;SDS011;17112;48.636;10.152;2023-11-21T07:05:25;3.97;;;1.83;;
30303;SDS011;17112;48.636;10.152;2023-11-21T07:07:51;4.97;;;1.70;;
30303;SDS011;17112;48.636;10.152;2023-11-21T07:10:19;7.20;;;1.65;;
30303;SDS011;17112;48.636;10.152;2023-11-21T07:12:44;3.00;;;1.48;;
30303;SDS011;17112;48.636;10.152;2023-11-21T07:15:10;2.85;;;1.30;;
30303;SDS011;17112;48.636;10.152;2023-11-21T07:17:37;8.30;;;1.88;;
30303;SDS011;17112;48.636;10.152;2023-11-21T07:20:03;6.18;;;1.60;;
30303;SDS011;17112;48.636;10.152;2023-11-21T07:22:29;4.43;;;2.00;;
30303;SDS011;17112;48.636;10.152;2023-11-21T07:24:55;3.85;;;2.03;;
30303;SDS011;17112;48.636;10.152;2023-11-21T07:27:23;5.72;;;2.47;;
30303;SDS011;17112;48.636;10.152;2023-11-21T07:29:49;8.13;;;2.90;;
30303;SDS011;17112;48.636;10.152;2023-11-21T07:32:14;3.22;;;2.00;;
30303;SDS011;17112;48.636;10.152;2023-11-21T07:34:41;3.35;;;2.10;;
30303;SDS011;17112;48.636;10.152;2023-11-21T07:37:07;4.95;;;2.53;;
30303;SDS011;17112;48.636;10.152;2023-11-21T07:39:34;3.90;;;2.45;;
30303;SDS011;17112;48.636;10.152;2023-11-21T07:42:01;3.60;;;2.67;;
30303;SDS011;17112;48.636;10.152;2023-11-21T07:44:27;5.45;;;3.30;;
30303;SDS011;17112;48.636;10.152;2023-11-21T07:46:53;7.97;;;4.40;;
30303;SDS011;17112;48.636;10.152;2023-11-21T07:49:22;7.45;;;4.70;;
30303;SDS011;17112;48.636;10.152;2023-11-21T07:51:51;8.60;;;3.92;;
30303;SDS011;17112;48.636;10.152;2023-11-21T07:54:17;7.10;;;3.50;;
30303;SDS011;17112;48.636;10.152;2023-11-21T07:56:43;6.13;;;2.90;;
30303;SDS011;17112;48.636;10.152;2023-11-21T07:59:09;4.85;;;2.88;;
30303;SDS011;17112;48.636;10.152;2023-11-21T08:01:34;7.22;;;3.35;;
30303;SDS011;17112;48.636;10.152;2023-11-21T08:04:00;7.45;;;3.63;;
30303;SDS011;17112;48.636;10.152;2023-11-21T08:06:31;7.55;;;3.50;;
30303;SDS011;17112;48.636;10.152;2023-11-21T08:08:57;8.98;;;4.53;;
30303;SDS011;17112;48.636;10.152;2023-11-21T08:11:23;13.10;;;6.22;;
30303;SDS011;17112;48.636;10.152;2023-11-21T08:13:49;12.88;;;7.00;;
30303;SDS011;17112;48.636;10.152;2023-11-21T08:16:15;11.02;;;4.85;;
30303;SDS011;17112;48.636;10.152;2023-11-21T08:18:42;11.15;;;4.95;;
30303;SDS011;17112;48.636;10.152;2023-11-21T08:21:07;7.95;;;3.75;;
30303;SDS011;17112;48.636;10.152;2023-11-21T08:23:33;6.13;;;3.92;;
30303;SDS011;17112;48.636;10.152;2023-11-21T08:25:59;6.45;;;3.13;;
30303;SDS011;17112;48.636;10.152;2023-11-21T08:28:26;5.63;;;2.67;;
30303;SDS011;17112;48.636;10.152;2023-11-21T08:30:52;4.80;;;2.17;;
30303;SDS011;17112;48.636;10.152;2023-11-21T08:33:19;6.85;;;2.65;;
30303;SDS011;17112;48.636;10.152;2023-11-21T08:35:44;3.15;;;2.05;;
30303;SDS011;17112;48.636;10.152;2023-11-21T08:38:11;5.65;;;2.20;;
30303;SDS011;17112;48.636;10.152;2023-11-21T08:40:37;4.38;;;1.67;;
30303;SDS011;17112;48.636;10.152;2023-11-21T08:43:03;6.25;;;2.22;;
30303;SDS011;17112;48.636;10.152;2023-11-21T08:45:32;4.88;;;2.55;;
30303;SDS011;17112;48.636;10.152;2023-11-21T08:47:59;15.90;;;8.73;;
30303;SDS011;17112;48.636;10.152;2023-11-21T08:50:27;6.25;;;4.43;;
30303;SDS011;17112;48.636;10.152;2023-11-21T08:52:53;4.95;;;2.50;;
30303;SDS011;17112;48.636;10.152;2023-11-21T08:55:18;4.22;;;1.98;;
30303;SDS011;17112;48.636;10.152;2023-11-21T08:57:45;3.15;;;1.73;;
30303;SDS011;17112;48.636;10.152;2023-11-21T09:00:13;4.25;;;2.00;;
30303;SDS011;17112;48.636;10.152;2023-11-21T09:02:42;5.68;;;2.13;;
30303;SDS011;17112;48.636;10.152;2023-11-21T09:05:11;6.93;;;2.42;;
30303;SDS011;17112;48.636;10.152;2023-11-21T09:07:38;8.35;;;5.78;;
30303;SDS011;17112;48.636;10.152;2023-11-21T09:10:06;3.83;;;2.08;;
30303;SDS011;17112;48.636;10.152;2023-11-21T09:12:32;2.08;;;1.80;;
30303;SDS011;17112;48.636;10.152;2023-11-21T09:15:00;3.00;;;1.48;;
30303;SDS011;17112;48.636;10.152;2023-11-21T09:17:30;4.10;;;2.40;;
30303;SDS011;17112;48.636;10.152;2023-11-21T09:19:56;3.97;;;1.55;;
30303;SDS011;17112;48.636;10.152;2023-11-21T09:22:22;7.07;;;1.52;;
30303;SDS011;17112;48.636;10.152;2023-11-21T09:24:49;1.52;;;1.00;;
30303;SDS011;17112;48.636;10.152;2023-11-21T09:27:16;0.70;;;0.70;;
30303;SDS011;17112;48.636;10.152;2023-11-21T09:29:42;0.88;;;0.80;;
30303;SDS011;17112;48.636;10.152;2023-11-21T09:32:08;1.50;;;0.70;;
30303;SDS011;17112;48.636;10.152;2023-11-21T09:34:37;1.10;;;0.75;;
30303;SDS011;17112;48.636;10.152;2023-11-21T09:37:04;1.30;;;0.90;;
30303;SDS011;17112;48.636;10.152;2023-11-21T09:39:31;1.75;;;0.70;;
30303;SDS011;17112;48.636;10.152;2023-11-21T09:41:58;0.95;;;0.60;;
30303;SDS011;17112;48.636;10.152;2023-11-21T09:47:30;0.83;;;0.60;;
30303;SDS011;17112;48.636;10.152;2023-11-21T09:49:57;1.73;;;0.65;;
30303;SDS011;17112;48.636;10.152;2023-11-21T09:52:26;1.35;;;0.70;;
30303;SDS011;17112;48.636;10.152;2023-11-21T09:54:53;1.27;;;1.00;;
30303;SDS011;17112;48.636;10.152;2023-11-21T09:57:23;1.83;;;0.70;;
30303;SDS011;17112;48.636;10.152;2023-11-21T09:59:50;0.75;;;0.70;;
30303;SDS011;17112;48.636;10.152;2023-11-21T10:02:24;1.13;;;0.70;;
30303;SDS011;17112;48.636;10.152;2023-11-21T10:04:53;2.28;;;0.65;;
30303;SDS011;17112;48.636;10.152;2023-11-21T10:07:20;0.60;;;0.60;;
30303;SDS011;17112;48.636;10.152;2023-11-21T10:09:46;2.35;;;0.60;;
30303;SDS011;17112;48.636;10.152;2023-11-21T10:12:13;1.15;;;0.80;;
30303;SDS011;17112;48.636;10.152;2023-11-21T10:14:41;0.80;;;0.80;;
30303;SDS011;17112;48.636;10.152;2023-11-21T10:17:07;1.38;;;0.82;;
30303;SDS011;17112;48.636;10.152;2023-11-21T10:19:37;2.08;;;0.90;;
30303;SDS011;17112;48.636;10.152;2023-11-21T10:22:04;0.60;;;0.60;;
30303;SDS011;17112;48.636;10.152;2023-11-21T10:24:32;3.58;;;0.70;;
30303;SDS011;17112;48.636;10.152;2023-11-21T10:26:58;2.05;;;0.90;;
30303;SDS011;17112;48.636;10.152;2023-11-21T10:29:24;0.82;;;0.70;;
30303;SDS011;17112;48.636;10.152;2023-11-21T10:31:54;1.20;;;0.60;;
30303;SDS011;17112;48.636;10.152;2023-11-21T10:34:20;1.40;;;0.70;;
30303;SDS011;17112;48.636;10.152;2023-11-21T10:36:47;0.52;;;0.50;;
30303;SDS011;17112;48.636;10.152;2023-11-21T10:39:16;0.60;;;0.60;;
30303;SDS011;17112;48.636;10.152;2023-11-21T10:41:44;0.60;;;0.60;;
30303;SDS011;17112;48.636;10.152;2023-11-21T10:44:16;0.80;;;0.68;;
30303;SDS011;17112;48.636;10.152;2023-11-21T10:46:46;1.48;;;0.60;;
30303;SDS011;17112;48.636;10.152;2023-11-21T10:49:16;1.13;;;0.68;;
30303;SDS011;17112;48.636;10.152;2023-11-21T10:51:49;1.75;;;0.63;;
30303;SDS011;17112;48.636;10.152;2023-11-21T10:54:20;1.50;;;0.70;;
30303;SDS011;17112;48.636;10.152;2023-11-21T10:56:50;1.85;;;0.60;;
30303;SDS011;17112;48.636;10.152;2023-11-21T11:01:50;0.60;;;0.60;;
30303;SDS011;17112;48.636;10.152;2023-11-21T11:04:18;3.97;;;1.00;;
30303;SDS011;17112;48.636;10.152;2023-11-21T11:06:44;0.90;;;0.70;;
30303;SDS011;17112;48.636;10.152;2023-11-21T11:09:19;1.83;;;0.70;;
30303;SDS011;17112;48.636;10.152;2023-11-21T11:11:45;1.65;;;0.70;;
30303;SDS011;17112;48.636;10.152;2023-11-21T11:14:11;0.70;;;0.60;;
30303;SDS011;17112;48.636;10.152;2023-11-21T11:16:39;0.60;;;0.60;;
30303;SDS011;17112;48.636;10.152;2023-11-21T11:19:11;1.80;;;0.70;;
30303;SDS011;17112;48.636;10.152;2023-11-21T11:24:48;0.82;;;0.70;;
30303;SDS011;17112;48.636;10.152;2023-11-21T11:27:48;0.65;;;0.60;;
30303;SDS011;17112;48.636;10.152;2023-11-21T11:37:59;1.42;;;0.70;;
30303;SDS011;17112;48.636;10.152;2023-11-21T11:40:40;1.27;;;0.80;;
30303;SDS011;17112;48.636;10.152;2023-11-21T11:43:09;2.17;;;0.70;;
30303;SDS011;17112;48.636;10.152;2023-11-21T11:45:35;1.35;;;0.60;;
30303;SDS011;17112;48.636;10.152;2023-11-21T11:48:06;3.08;;;0.80;;
30303;SDS011;17112;48.636;10.152;2023-11-21T11:50:32;3.28;;;0.75;;
30303;SDS011;17112;48.636;10.152;2023-11-21T11:53:14;8.13;;;1.35;;
30303;SDS011;17112;48.636;10.152;2023-11-21T11:55:40;2.55;;;0.80;;
30303;SDS011;17112;48.636;10.152;2023-11-21T11:58:06;1.73;;;0.60;;
30303;SDS011;17112;48.636;10.152;2023-11-21T12:00:33;1.10;;;0.80;;
30303;SDS011;17112;48.636;10.152;2023-11-21T12:03:02;1.13;;;0.90;;
30303;SDS011;17112;48.636;10.152;2023-11-21T12:05:30;1.00;;;0.80;;
30303;SDS011;17112;48.636;10.152;2023-11-21T12:08:09;3.70;;;1.00;;
30303;SDS011;17112;48.636;10.152;2023-11-21T12:10:36;1.30;;;1.05;;
30303;SDS011;17112;48.636;10.152;2023-11-21T12:13:07;2.97;;;1.20;;
30303;SDS011;17112;48.636;10.152;2023-11-21T12:15:38;1.75;;;0.77;;
30303;SDS011;17112;48.636;10.152;2023-11-21T12:18:05;3.80;;;0.80;;
30303;SDS011;17112;48.636;10.152;2023-11-21T12:20:31;3.45;;;0.80;;
30303;SDS011;17112;48.636;10.152;2023-11-21T12:23:03;3.35;;;0.80;;
30303;SDS011;17112;48.636;10.152;2023-11-21T12:25:31;1.30;;;0.70;;
30303;SDS011;17112;48.636;10.152;2023-11-21T12:27:58;3.33;;;1.13;;
30303;SDS011;17112;48.636;10.152;2023-11-21T12:30:26;5.00;;;1.23;;
30303;SDS011;17112;48.636;10.152;2023-11-21T12:33:01;2.58;;;0.88;;
30303;SDS011;17112;48.636;10.152;2023-11-21T12:35:31;2.00;;;0.65;;
30303;SDS011;17112;48.636;10.152;2023-11-21T12:38:02;1.75;;;0.90;;
30303;SDS011;17112;48.636;10.152;2023-11-21T12:40:29;2.38;;;0.90;;
30303;SDS011;17112;48.636;10.152;2023-11-21T12:42:56;2.35;;;0.95;;
30303;SDS011;17112;48.636;10.152;2023-11-21T12:45:24;2.03;;;0.80;;
30303;SDS011;17112;48.636;10.152;2023-11-21T12:47:56;4.22;;;0.90;;
30303;SDS011;17112;48.636;10.152;2023-11-21T12:50:25;0.80;;;0.70;;
30303;SDS011;17112;48.636;10.152;2023-11-21T12:53:03;2.03;;;0.80;;
30303;SDS011;17112;48.636;10.152;2023-11-21T12:55:34;0.60;;;0.60;;
30303;SDS011;17112;48.636;10.152;2023-11-21T12:58:06;2.63;;;0.80;;
30303;SDS011;17112;48.636;10.152;2023-11-21T13:00:37;1.75;;;0.82;;
30303;SDS011;17112;48.636;10.152;2023-11-21T13:03:07;10.02;;;1.48;;
30303;SDS011;17112;48.636;10.152;2023-11-21T13:05:34;2.75;;;0.75;;
30303;SDS011;17112;48.636;10.152;2023-11-21T13:08:05;2.58;;;0.85;;
30303;SDS011;17112;48.636;10.152;2023-11-21T13:10:33;1.02;;;0.85;;
30303;SDS011;17112;48.636;10.152;2023-11-21T13:13:05;3.40;;;0.90;;
30303;SDS011;17112;48.636;10.152;2023-11-21T13:15:36;3.05;;;0.70;;
30303;SDS011;17112;48.636;10.152;2023-11-21T13:18:05;5.20;;;1.23;;
30303;SDS011;17112;48.636;10.152;2023-11-21T13:20:32;0.95;;;0.70;;
30303;SDS011;17112;48.636;10.152;2023-11-21T13:22:58;3.33;;;1.10;;
30303;SDS011;17112;48.636;10.152;2023-11-21T13:25:25;1.73;;;1.52;;
30303;SDS011;17112;48.636;10.152;2023-11-21T13:27:57;1.10;;;1.00;;
30303;SDS011;17112;48.636;10.152;2023-11-21T13:30:26;3.28;;;1.10;;
30303;SDS011;17112;48.636;10.152;2023-11-21T13:32:58;4.95;;;0.93;;
30303;SDS011;17112;48.636;10.152;2023-11-21T13:35:30;1.98;;;0.80;;
30303;SDS011;17112;48.636;10.152;2023-11-21T13:38:02;3.60;;;1.02;;
30303;SDS011;17112;48.636;10.152;2023-11-21T13:40:30;1.83;;;0.77;;
30303;SDS011;17112;48.636;10.152;2023-11-21T13:42:56;1.30;;;0.80;;
30303;SDS011;17112;48.636;10.152;2023-11-21T13:45:25;1.70;;;0.70;;
30303;SDS011;17112;48.636;10.152;2023-11-21T13:47:52;3.08;;;0.88;;
30303;SDS011;17112;48.636;10.152;2023-11-21T13:50:24;1.60;;;0.77;;
30303;SDS011;17112;48.636;10.152;2023-11-21T13:52:59;1.98;;;0.70;;
30303;SDS011;17112;48.636;10.152;2023-11-21T13:55:41;2.72;;;0.88;;
30303;SDS011;17112;48.636;10.152;2023-11-21T13:58:07;2.53;;;0.70;;
30303;SDS011;17112;48.636;10.152;2023-11-21T14:00:36;6.07;;;0.80;;
30303;SDS011;17112;48.636;10.152;2023-11-21T14:03:17;2.35;;;0.90;;
30303;SDS011;17112;48.636;10.152;2023-11-21T14:05:46;2.25;;;0.90;;
30303;SDS011;17112;48.636;10.152;2023-11-21T14:08:18;2.33;;;0.70;;
30303;SDS011;17112;48.636;10.152;2023-11-21T14:10:49;3.92;;;0.93;;
30303;SDS011;17112;48.636;10.152;2023-11-21T14:13:20;3.75;;;0.80;;
30303;SDS011;17112;48.636;10.152;2023-11-21T14:15:48;0.80;;;0.80;;
30303;SDS011;17112;48.636;10.152;2023-11-21T14:18:22;2.58;;;0.70;;
30303;SDS011;17112;48.636;10.152;2023-11-21T14:21:03;1.92;;;1.23;;
30303;SDS011;17112;48.636;10.152;2023-11-21T14:23:30;2.60;;;1.00;;
30303;SDS011;17112;48.636;10.152;2023-11-21T14:25:56;1.02;;;0.90;;
30303;SDS011;17112;48.636;10.152;2023-11-21T14:28:23;2.97;;;1.48;;
30303;SDS011;17112;48.636;10.152;2023-11-21T14:30:48;0.70;;;0.70;;
30303;SDS011;17112;48.636;10.152;2023-11-21T14:33:14;2.95;;;0.60;;
30303;SDS011;17112;48.636;10.152;2023-11-21T14:35:41;0.60;;;0.60;;
30303;SDS011;17112;48.636;10.152;2023-11-21T14:38:08;0.50;;;0.50;;
30303;SDS011;17112;48.636;10.152;2023-11-21T14:40:35;0.60;;;0.60;;
30303;SDS011;17112;48.636;10.152;2023-11-21T14:43:01;1.45;;;0.70;;
30303;SDS011;17112;48.636;10.152;2023-11-21T14:45:30;1.42;;;0.60;;
30303;SDS011;17112;48.636;10.152;2023-11-21T14:47:59;3.97;;;0.63;;
30303;SDS011;17112;48.636;10.152;2023-11-21T14:50:32;1.60;;;0.60;;
30303;SDS011;17112;48.636;10.152;2023-11-21T14:53:15;0.75;;;0.70;;